Weather at Palonegro Airport

Public forecast

Using degrees Celsius for public forecast. Weather courtesy of forecast.io.

Current aviation weather report (METAR) for Palonegro Airport

Retrieved 2021/01/16 14:00 UTC (44 minutes ago):

SKBG 161400Z VRB02KT 9999 SCT012 23/16 Q1017 RMK A3003

Aviation forecast (TAF) for Palonegro Airport

Retrieved 2021/01/16 12:51 UTC (2 hours ago):

TAF SKBG 161030Z 1612/1712 32007KT 9999 SCT016 TEMPO 1622/1624 SCT013TCU BECMG 1700/1702 VRB02KT TX28/1619Z N18/1710Z